Aviation Digital Data Service (ADDS)

Output produced by METARs form (2254 UTC 22 June 2018)
found at http://www.aviationweather.gov/adds/metars/
 
KHEZ 222156Z AUTO 23010G17KT 10SM FEW042 SCT049 33/23 A2983 RMK AO2 SLP101 T03280233
KHEZ 222056Z AUTO 20007G14KT 10SM BKN041 BKN055 33/24 A2986 RMK AO2 SLP113 T03280239 56022
KHEZ 221956Z AUTO 23012KT 10SM BKN037 BKN047 32/24 A2986 RMK AO2 SLP113 T03220239
KHEZ 221856Z AUTO 25011G15KT 10SM BKN035 BKN043 32/23 A2990 RMK AO2 SLP124 T03170233
KHEZ 221756Z AUTO 25014G18KT 10SM SCT029 BKN035 31/23 A2993 RMK AO2 SLP134 T03060233 10306 20244 50002
KHEZ 221734Z AUTO 22011G17KT 10SM BKN029 BKN037 31/23 A2993 RMK AO2
KHEZ 221707Z AUTO 23011KT 10SM SCT025 SCT030 30/24 A2993 RMK AO2
KHEZ 221656Z AUTO 23012KT 10SM BKN025 29/24 A2993 RMK AO2 SLP136 T02940239
KHEZ 221556Z AUTO 23010G18KT 10SM BKN021 OVC026 29/24 A2993 RMK AO2 SLP135 T02940239
KHEZ 221518Z AUTO 23013G19KT 10SM FEW003 BKN017 28/24 A2992 RMK AO2
KHEZ 221456Z AUTO 22010G16KT 9SM BKN015 28/24 A2992 RMK AO2 SLP132 T02830239 53002
KHEZ 221446Z AUTO 23011KT 10SM BKN015 28/24 A2992 RMK AO2
KHEZ 221356Z AUTO 23010KT 9SM OVC013 27/24 A2993 RMK AO2 SLP135 T02720239
KHEZ 221256Z AUTO 21008KT 10SM BKN011 26/24 A2990 RMK AO2 SLP127 T02610239
KHEZ 221248Z AUTO 21007KT 10SM BKN011 26/24 A2991 RMK AO2
KHEZ 221217Z AUTO 22006KT 9SM SCT009 26/23 A2992 RMK AO2
KHEZ 221156Z AUTO 23006KT 7SM OVC009 24/23 A2991 RMK AO2 CIG 007V013 SLP130 T02440233 10250 20239 51009
KHEZ 221056Z AUTO 21004KT 7SM OVC009 24/23 A2990 RMK AO2 SLP126 T02390233
KHEZ 220956Z AUTO 22005KT 9SM BKN009 24/23 A2990 RMK AO2 SLP126 T02440233
KHEZ 220856Z AUTO 22006KT 9SM OVC009 24/23 A2989 RMK AO2 SLP121 T02440233 55002
KHEZ 220822Z AUTO 23005KT 9SM BKN007 24/24 A2988 RMK AO2
KHEZ 220805Z AUTO 22004KT 9SM FEW007 24/23 A2988 RMK AO2
KHEZ 220756Z AUTO 23005KT 9SM CLR 24/24 A2988 RMK AO2 SLP119 T02440239
KHEZ 220708Z AUTO 23005KT 10SM FEW009 24/24 A2988 RMK AO2
KHEZ 220656Z AUTO 22007KT 10SM BKN009 25/24 A2988 RMK AO2 SLP120 T02500239
KHEZ 220640Z AUTO 22005KT 10SM BKN009 25/24 A2989 RMK AO2
KHEZ 220619Z AUTO 22005KT 10SM FEW009 25/23 A2989 RMK AO2
KHEZ 220556Z AUTO 22005KT 10SM CLR 25/23 A2989 RMK AO2 SLP124 T02500233 10289 20244 58005
KHEZ 220456Z AUTO 20006KT 10SM CLR 24/23 A2990 RMK AO2 SLP126 T02440233 403060239
KHEZ 220356Z AUTO 19005KT 10SM CLR 25/23 A2991 RMK AO2 SLP128 T02500233
KHEZ 220256Z AUTO 19006KT 10SM CLR 26/23 A2991 RMK AO2 SLP129 T02560233 53012
KHEZ 220056Z AUTO 20005KT 10SM CLR 27/24 A2988 RMK AO2 SLP120 T02720239
KHEZ 212356Z AUTO 21007KT 10SM FEW022 29/24 A2987 RMK AO2 SLP117 T02890239 10306 20272 56005
KHEZ 212249Z AUTO 20008KT 10SM SCT023 30/24 A2988 RMK AO2
KHEZ 212214Z AUTO 19008KT 10SM BKN023 30/24 A2988 RMK AO2
KHEZ 212156Z AUTO 20009G14KT 10SM FEW023 30/24 A2988 RMK AO2 SLP119 T03000244
KHEZ 212127Z AUTO 23008KT 10SM SCT023 30/24 A2988 RMK AO2
KHEZ 212056Z AUTO 24009KT 10SM SCT020 BKN026 30/24 A2989 RMK AO2 SLP122 T03000244 57018
KHEZ 211956Z AUTO 24008KT 10SM BKN016 28/24 A2991 RMK AO2 SLP128 T02830244
KHEZ 211856Z AUTO 24010G15KT 10SM BKN018 28/24 A2993 RMK AO2 SLP135 T02780244
KHEZ 211849Z AUTO 23009KT 9SM BKN018 28/24 A2993 RMK AO2
KHEZ 211831Z AUTO 22012G18KT 10SM FEW016 SCT021 27/23 A2993 RMK AO2
KHEZ 211818Z AUTO 24011KT 10SM SCT014 BKN021 27/24 A2994 RMK AO2
KHEZ 211756Z AUTO 23011KT 10SM BKN012 BKN018 28/24 A2994 RMK AO2 RAE1657 SLP140 60000 T02780244 10283 20244 58003
KHEZ 211742Z AUTO 24012KT 10SM FEW007 OVC010 27/25 A2994 RMK AO2 RAE1657
KHEZ 211720Z AUTO 23006KT 10SM BKN008 OVC019 27/25 A2994 RMK AO2 LTG DSNT SE RAE1657 CIG 006V014
KHEZ 211713Z AUTO 23008KT 10SM SCT008 BKN012 BKN019 27/25 A2995 RMK AO2 RAE1657
KHEZ 211656Z AUTO 24007KT 10SM -RA SCT015 BKN024 BKN047 26/24 A2995 RMK AO2 RAB14 SLP143 P0000 T02610244
KHEZ 211620Z AUTO 00000KT 7SM -RA BKN015 BKN024 OVC070 26/24 A2996 RMK AO2 RAB14 P0000
KHEZ 211556Z AUTO 21004KT 10SM BKN050 OVC060 26/24 A2996 RMK AO2 RAE07 SLP146 P0000 T02610239
KHEZ 211536Z AUTO 18003KT 10SM FEW020 SCT036 OVC060 26/24 A2996 RMK AO2 RAE07 P0000
KHEZ 211514Z AUTO 00000KT 10SM BKN022 BKN035 OVC055 25/23 A2995 RMK AO2 RAE07 P0000 TSNO
KHEZ 211456Z AUTO 00000KT 10SM -RA FEW024 BKN055 OVC070 25/23 A2995 RMK AO2 LTG DSNT NE RAB06E32B53 SLP144 P0000 60000 T02500233 50004
KHEZ 211356Z AUTO 27005KT 10SM 25/23 A2996 RMK AO2 RAE1258 SLP144 P0000 T02500233
KHEZ 211346Z AUTO 29004KT 10SM 26/24 A2995 RMK AO2 RAE1258 P0000 $
KHEZ 211344Z AUTO 27004KT 10SM BKN011 OVC060 26/24 A2995 RMK AO2 RAE1258 P0000
KHEZ 211303Z AUTO 24003KT 7SM BKN009 OVC013 25/24 A2995 RMK AO2 RAE1258 CIG 006V010 P0000
KHEZ 211256Z AUTO 24003KT 8SM -RA OVC011 25/24 A2995 RMK AO2 SLP141 P0000 T02500244
KHEZ 211251Z AUTO 00000KT 9SM -RA BKN011 OVC065 25/24 A2994 RMK AO2 P0000
KHEZ 211243Z AUTO 24003KT 9SM -RA BKN009 BKN014 OVC065 25/24 A2994 RMK AO2 P0000
KHEZ 211236Z AUTO 21003KT 7SM -RA OVC011 25/24 A2994 RMK AO2 CIG 007V015 P0000
KHEZ 211156Z AUTO 00000KT 6SM -RA BR OVC007 24/24 A2993 RMK AO2 RAB05 CIG 004V009 SLP135 P0001 60001 70007 T02440239 10244 20239 53004
KHEZ 211143Z AUTO 00000KT 7SM -RA BKN009 OVC014 24/24 A2993 RMK AO2 RAB05 CIG 007V012 P0000
KHEZ 211128Z AUTO 21003KT 7SM -RA BKN013 BKN030 24/24 A2992 RMK AO2 RAB05 P0000
KHEZ 211056Z AUTO 23003KT 9SM CLR 24/24 A2992 RMK AO2 SLP133 T02440239
KHEZ 210956Z AUTO 18006KT 9SM CLR 24/23 A2991 RMK AO2 SLP129 T02440233
KHEZ 210856Z AUTO 20003KT 9SM CLR 24/23 A2992 RMK AO2 SLP131 T02440233 57006
KHEZ 210756Z AUTO 21003KT 10SM CLR 24/23 A2992 RMK AO2 SLP133 T02440233
KHEZ 210656Z AUTO 19003KT 10SM CLR 24/24 A2993 RMK AO2 SLP135 T02440239
KHEZ 210556Z AUTO 20004KT 10SM CLR 24/24 A2993 RMK AO2 SLP137 60000 T02440239 10278 20244 50004
KHEZ 210456Z AUTO 19003KT 10SM CLR 25/24 A2994 RMK AO2 SLP138 T02500239 403280228
KHEZ 210356Z AUTO 15004KT 10SM CLR 25/24 A2994 RMK AO2 SLP139 T02500244
KHEZ 210256Z AUTO 16004KT 10SM CLR 26/24 A2992 RMK AO2 SLP134 60000 T02560244 53008
KHEZ 210156Z AUTO 00000KT 10SM CLR 26/25 A2991 RMK AO2 SLP130 T02610250
KHEZ 210056Z AUTO 00000KT 10SM CLR 27/25 A2990 RMK AO2 RAE25 SLP126 P0000 T02720250
KHEZ 202356Z AUTO 16004KT 10SM -RA FEW070 28/25 A2990 RMK AO2 RAB54 SLP126 P0000 60006 T02780250 10328 20239 55008 TSNO
KHEZ 202256Z AUTO 13007KT 10SM CLR 29/24 A2989 RMK AO2 LTG DSNT N AND NW TSE08RAE23 SLP123 P0000 T02890244
KHEZ 202225Z AUTO 12006KT 10SM FEW002 28/24 A2990 RMK AO2 LTG DSNT N AND NE TSE08RAE23 P0000
KHEZ 202214Z AUTO VRB03KT 10SM -RA CLR 28/26 A2990 RMK AO2 LTG DSNT N AND NE TSE08 P0000
KHEZ 202156Z AUTO 15004KT 10SM VCTS -RA CLR 27/24 A2991 RMK AO2 LTG DSNT N AND NE TSE04B06RAB01 SLP129 P0006 T02670244
KHEZ 202106Z AUTO 23007G18KT 8SM +TSRA BKN039 BKN049 25/22 A2993 RMK AO2 LTG DSNT E AND W TSE04B06RAB01 P0005
KHEZ 202056Z AUTO 19014G28KT 10SM TS FEW039 SCT120 30/22 A2992 RMK AO2 PK WND 18028/2052 LTG DSNT E TSB26 SLP134 T03000222 55013
KHEZ 202032Z AUTO 21005KT 10SM VCTS FEW080 SCT120 32/23 A2991 RMK AO2 LTG DSNT E-SW TSB26
KHEZ 201956Z AUTO 14008KT 10SM BKN034 BKN042 31/23 A2991 RMK AO2 LTG DSNT SE AND S SLP130 T03110233
KHEZ 201856Z AUTO 22006KT 10SM FEW032 31/24 A2994 RMK AO2 SLP138 T03110239
KHEZ 201756Z AUTO 19006KT 10SM SCT026 BKN110 30/24 A2996 RMK AO2 SLP147 T03000239 10306 20239 58006
KHEZ 201656Z AUTO 17005KT 10SM CLR 29/24 A2998 RMK AO2 SLP152 T02940239
KHEZ 201556Z AUTO 15005KT 10SM FEW020 29/24 A2998 RMK AO2 SLP153 T02890239
KHEZ 201456Z AUTO 16007KT 10SM FEW008 27/24 A2998 RMK AO2 SLP153 T02720244 50004
KHEZ 201448Z AUTO 15007KT 10SM SCT008 27/24 A2998 RMK AO2
KHEZ 201421Z AUTO 16006KT 10SM BKN008 27/25 RMK AO2 CIG 006V011 $
KHEZ 201356Z AUTO 17006KT 10SM SCT006 27/24 A2998 RMK AO2 SLP154 T02670244
KHEZ 201337Z AUTO 16007KT 10SM FEW006 26/24 A2998 RMK AO2
KHEZ 201256Z AUTO 13006KT 10SM CLR 26/24 A2997 RMK AO2 SLP150 T02560244
KHEZ 201156Z AUTO 00000KT 8SM SCT004 24/23 A2997 RMK AO2 SLP149 7//// T02390233 10239 20228 53004
KHEZ 201135Z AUTO 00000KT 8SM FEW004 24/23 A2997 RMK AO2
KHEZ 201056Z AUTO 00000KT 9SM FEW120 24/23 A2996 RMK AO2 SLP147 T02390233
KHEZ 200956Z AUTO 00000KT 10SM CLR 24/23 A2995 RMK AO2 SLP144 T02390228
KHEZ 200856Z AUTO 00000KT 10SM FEW120 24/23 A2996 RMK AO2 SLP145 T02390228 58008
KHEZ 200756Z AUTO 00000KT 10SM CLR 23/23 A2996 RMK AO2 SLP147 T02330228
KHEZ 200656Z AUTO 02003KT 6SM BR CLR 23/22 A2998 RMK AO2 SLP152 T02280222
KHEZ 200456Z AUTO 00000KT 10SM CLR 23/23 A2999 RMK AO2 SLP155 T02330228 403060222
KHEZ 200356Z AUTO 00000KT 10SM CLR 23/23 A2999 RMK AO2 SLP157 T02330228
KHEZ 200256Z AUTO 00000KT 10SM CLR 23/23 A2999 RMK AO2 RAB07E17 SLP156 P0000 60000 T02330228 53001
KHEZ 200156Z AUTO 00000KT 10SM CLR 23/23 A2998 RMK AO2 SLP152 T02330228
KHEZ 200056Z AUTO 00000KT 10SM CLR 23/22 A2998 RMK AO2 RAE10 SLP153 P0000 T02280222
KHEZ 192356Z AUTO 01004KT 10SM -RA FEW003 23/22 A2999 RMK AO2 SLP157 P0001 60011 T02280222 10306 20228 58001
KHEZ 192335Z AUTO 01004KT 8SM -RA FEW005 BKN070 OVC085 23/22 A2999 RMK AO2 P0001
KHEZ 192256Z AUTO 00000KT 9SM -RA SCT044 BKN060 23/22 A3000 RMK AO2 LTG DSNT NE SLP160 P0002 T02280222